createdAt,value
2023-12-13T05:02:37.305Z,7.93
2023-12-13T05:06:39.880Z,7.80
2023-12-13T05:10:44.526Z,7.63
2023-12-13T05:14:47.413Z,7.61
2023-12-13T05:18:51.390Z,7.74
2023-12-13T05:22:54.132Z,7.72
2023-12-13T05:26:56.845Z,7.71
2023-12-13T05:30:59.515Z,7.70
2023-12-13T05:35:03.927Z,7.76
2023-12-13T05:39:08.212Z,7.79
2023-12-13T05:43:10.915Z,7.91
2023-12-13T05:47:13.693Z,7.87
2023-12-13T05:51:17.872Z,7.82
2023-12-13T05:55:20.503Z,7.74
2023-12-13T05:59:23.264Z,7.62
2023-12-13T06:03:26.911Z,7.58
2023-12-13T06:07:31.367Z,7.58
2023-12-13T06:11:34.165Z,7.59
2023-12-13T06:15:38.332Z,7.60
2023-12-13T06:19:40.956Z,7.61
2023-12-13T06:23:44.967Z,7.65
2023-12-13T06:27:47.570Z,7.64
2023-12-13T06:31:50.226Z,7.63
2023-12-13T06:35:53.245Z,7.64
2023-12-13T06:39:57.233Z,7.64
2023-12-13T06:44:00.037Z,7.63
2023-12-13T06:48:02.761Z,7.65
2023-12-13T06:52:06.024Z,7.71
2023-12-13T06:56:11.004Z,7.73
2023-12-13T07:00:15.255Z,7.68
2023-12-13T07:04:18.041Z,7.71
2023-12-13T07:08:20.725Z,7.75
2023-12-13T07:12:28.488Z,7.75
2023-12-13T07:16:31.169Z,7.83
2023-12-13T07:20:34.004Z,7.87
2023-12-13T07:24:37.394Z,7.86
2023-12-13T07:28:41.185Z,7.72
2023-12-13T07:32:45.241Z,7.64
2023-12-13T07:36:49.947Z,7.62
2023-12-13T07:40:52.565Z,7.60
2023-12-13T07:44:56.527Z,7.71
2023-12-13T07:53:06.978Z,7.93
2023-12-13T07:57:09.627Z,8.06
2023-12-13T08:01:13.638Z,8.20
2023-12-13T08:05:21.352Z,8.09
2023-12-13T08:09:24.722Z,8.15
2023-12-13T08:13:27.373Z,8.10
2023-12-13T08:17:31.811Z,8.15
2023-12-13T08:21:34.568Z,8.17
2023-12-13T08:25:37.447Z,8.21
2023-12-13T08:29:40.136Z,8.21
2023-12-13T08:33:44.278Z,8.25
2023-12-13T08:37:46.941Z,8.19
2023-12-13T08:41:49.652Z,8.20
2023-12-13T08:45:52.933Z,8.28
2023-12-13T08:49:56.960Z,8.34
2023-12-13T08:53:59.594Z,8.40
2023-12-13T08:58:02.272Z,8.62
2023-12-13T09:02:05.300Z,8.69
2023-12-13T09:06:11.636Z,8.91
2023-12-13T09:10:14.437Z,9.04
2023-12-13T09:14:17.232Z,9.12
2023-12-13T09:18:20.468Z,9.06
2023-12-13T09:22:24.495Z,9.03
2023-12-13T09:26:27.416Z,9.04
2023-12-13T09:30:30.070Z,9.15
2023-12-13T09:34:32.760Z,9.25
2023-12-13T09:38:36.822Z,9.33
2023-12-13T09:42:45.261Z,9.48
2023-12-13T09:46:48.688Z,9.45
2023-12-13T09:50:53.217Z,9.43
2023-12-13T09:54:58.647Z,9.50
2023-12-13T09:59:01.227Z,9.56
2023-12-13T10:03:04.258Z,9.82
2023-12-13T10:07:08.908Z,9.81
2023-12-13T10:11:13.095Z,9.78
2023-12-13T10:15:15.934Z,9.78
2023-12-13T10:19:18.634Z,9.87
2023-12-13T10:23:21.706Z,9.78
2023-12-13T10:27:26.009Z,9.88
2023-12-13T10:31:28.650Z,10.04
2023-12-13T10:35:31.258Z,10.27
2023-12-13T10:39:34.867Z,10.36
2023-12-13T10:43:43.424Z,10.52
2023-12-13T10:47:47.804Z,10.61
2023-12-13T10:51:51.695Z,10.61
2023-12-13T10:55:56.586Z,10.61
2023-12-13T11:00:01.304Z,10.56
2023-12-13T11:04:08.013Z,10.63
2023-12-13T11:08:18.177Z,10.76
2023-12-13T11:12:20.845Z,10.79
2023-12-13T11:16:26.200Z,10.87
2023-12-13T11:20:29.217Z,10.90
2023-12-13T11:24:34.264Z,10.88
2023-12-13T11:28:38.924Z,10.89
2023-12-13T11:32:47.717Z,10.92
2023-12-13T11:36:57.857Z,10.95
2023-12-13T11:41:02.993Z,10.99
2023-12-13T11:45:06.738Z,11.01
2023-12-13T11:49:10.726Z,11.12
2023-12-13T11:53:13.680Z,11.05
2023-12-13T11:57:17.235Z,11.09
2023-12-13T12:01:20.602Z,11.19
2023-12-13T12:05:25.681Z,11.10
2023-12-13T12:09:28.380Z,11.09
2023-12-13T12:13:30.988Z,10.98
2023-12-13T12:17:34.021Z,11.19
2023-12-13T12:21:38.682Z,11.37
2023-12-13T12:25:43.372Z,11.42
2023-12-13T12:29:46.027Z,11.32
2023-12-13T12:34:01.359Z,11.23
2023-12-13T12:38:09.174Z,11.23
2023-12-13T12:42:11.981Z,11.19
2023-12-13T12:46:15.466Z,11.26
2023-12-13T12:50:25.659Z,11.36
2023-12-13T12:54:29.637Z,11.27
2023-12-13T12:58:32.615Z,11.26
2023-12-13T13:02:35.303Z,11.11
2023-12-13T13:06:37.936Z,11.14
2023-12-13T13:10:41.933Z,11.10
2023-12-13T13:14:44.733Z,11.08
2023-12-13T13:18:48.683Z,11.01
2023-12-13T13:22:51.752Z,11.05
2023-12-13T13:26:55.889Z,11.12
2023-12-13T13:30:58.821Z,11.23
2023-12-13T13:35:01.820Z,11.21
2023-12-13T13:39:04.545Z,11.27
2023-12-13T13:43:08.816Z,11.28
2023-12-13T13:47:12.168Z,11.20
2023-12-13T13:51:15.276Z,11.21
2023-12-13T13:55:17.972Z,11.13
2023-12-13T13:59:21.897Z,11.07
2023-12-13T14:03:24.595Z,10.98
2023-12-13T14:07:27.288Z,10.78
2023-12-13T14:11:31.246Z,10.75
2023-12-13T14:15:35.208Z,10.80
2023-12-13T14:19:39.082Z,10.79
2023-12-13T14:23:42.323Z,10.77
2023-12-13T14:27:44.961Z,10.75
2023-12-13T14:31:49.082Z,10.71
2023-12-13T14:35:51.745Z,10.67
2023-12-13T14:39:54.515Z,10.59
2023-12-13T14:43:57.295Z,10.49
2023-12-13T14:48:01.639Z,10.43
2023-12-13T14:52:04.345Z,10.33
2023-12-13T14:56:07.711Z,10.15
2023-12-13T15:00:13.621Z,9.84
2023-12-13T15:04:17.947Z,9.56
2023-12-13T15:08:20.630Z,9.44
2023-12-13T15:12:23.243Z,9.49
2023-12-13T15:16:26.068Z,9.56
2023-12-13T15:20:31.074Z,9.57
2023-12-13T15:24:33.657Z,9.67
2023-12-13T15:28:37.322Z,9.57
2023-12-13T15:32:43.841Z,9.56
2023-12-13T15:36:48.607Z,9.57
2023-12-13T15:40:51.299Z,9.47
2023-12-13T15:44:53.935Z,9.36
2023-12-13T15:48:56.725Z,9.31
2023-12-13T15:53:01.473Z,9.37
2023-12-13T15:57:04.381Z,9.28
2023-12-13T16:01:08.602Z,9.25
2023-12-13T16:05:14.031Z,9.21
2023-12-13T16:09:18.341Z,9.19
2023-12-13T16:13:21.043Z,8.99
2023-12-13T16:17:23.712Z,8.85
2023-12-13T16:21:27.349Z,8.72
2023-12-13T16:25:31.428Z,8.73
2023-12-13T16:29:34.069Z,8.67
2023-12-13T16:33:38.885Z,8.61
2023-12-13T16:37:41.591Z,8.44
2023-12-13T16:41:45.661Z,8.40
2023-12-13T16:45:48.438Z,8.41
2023-12-13T16:49:51.290Z,8.45
2023-12-13T16:53:54.053Z,8.41
2023-12-13T16:57:59.830Z,8.46
2023-12-13T17:02:03.253Z,8.49
2023-12-13T17:06:06.446Z,8.56
2023-12-13T17:10:10.125Z,8.46
2023-12-13T17:14:14.168Z,8.40
2023-12-13T17:18:17.623Z,8.38
2023-12-13T17:22:21.627Z,8.48
2023-12-13T17:26:24.312Z,8.48
2023-12-13T17:30:29.095Z,8.41
2023-12-13T17:34:32.096Z,8.45
2023-12-13T17:38:36.416Z,8.42
2023-12-13T17:42:42.634Z,8.27
2023-12-13T17:46:46.737Z,8.17
2023-12-13T17:50:49.501Z,8.18
2023-12-13T17:54:52.158Z,8.08
2023-12-13T17:58:54.894Z,8.13
2023-12-13T18:02:58.885Z,8.11
2023-12-13T18:07:01.652Z,8.05
2023-12-13T18:11:04.485Z,8.01
2023-12-13T18:15:08.193Z,7.93
2023-12-13T18:19:12.698Z,7.97
2023-12-13T18:23:15.403Z,7.97
2023-12-13T18:27:18.072Z,7.94
2023-12-13T18:31:20.735Z,8.05
2023-12-13T18:35:24.815Z,8.11
2023-12-13T18:39:27.483Z,8.10
2023-12-13T18:43:30.145Z,8.09
2023-12-13T18:47:32.905Z,8.12
2023-12-13T18:51:36.928Z,8.12
2023-12-13T18:55:40.498Z,8.07
2023-12-13T18:59:43.091Z,7.99
2023-12-13T19:03:45.743Z,7.93
2023-12-13T19:07:49.701Z,7.88
2023-12-13T19:11:52.328Z,7.81
2023-12-13T19:15:55.464Z,7.81
2023-12-13T19:19:58.185Z,7.84
2023-12-13T19:24:02.286Z,7.93
2023-12-13T19:28:04.913Z,8.00
2023-12-13T19:32:08.070Z,7.97
2023-12-13T19:36:11.110Z,7.95
2023-12-13T19:40:15.508Z,7.87
2023-12-13T19:44:18.283Z,7.91
2023-12-13T19:48:20.998Z,7.70
2023-12-13T19:52:23.716Z,7.66
2023-12-13T19:56:27.786Z,7.66
2023-12-13T20:00:30.395Z,7.61
2023-12-13T20:04:33.039Z,7.51
2023-12-13T20:08:35.656Z,7.53
2023-12-13T20:12:39.644Z,7.67
2023-12-13T20:16:42.281Z,7.73
2023-12-13T20:20:44.887Z,7.75
2023-12-13T20:24:47.794Z,7.82
2023-12-13T20:28:51.787Z,7.80
2023-12-13T20:32:54.637Z,7.76
2023-12-13T20:36:57.296Z,7.80
2023-12-13T20:41:00.070Z,7.88
2023-12-13T20:45:05.966Z,7.79
2023-12-13T20:49:10.025Z,7.79
2023-12-13T20:53:12.731Z,7.87
2023-12-13T20:57:15.646Z,7.81
2023-12-13T21:01:19.672Z,7.84
2023-12-13T21:05:22.421Z,7.85
2023-12-13T21:09:25.073Z,7.81
2023-12-13T21:13:27.764Z,7.82
2023-12-13T21:17:31.836Z,7.94
2023-12-13T21:21:34.527Z,7.94
2023-12-13T21:25:37.146Z,7.92
2023-12-13T21:29:39.785Z,7.92
2023-12-13T21:33:43.748Z,7.99
2023-12-13T21:37:46.498Z,8.07
2023-12-13T21:41:49.135Z,8.13
2023-12-13T21:45:51.861Z,8.10
2023-12-13T21:49:55.908Z,8.08
2023-12-13T21:53:58.919Z,8.05
2023-12-13T21:58:01.610Z,7.99
